sensor_id;sensor_type;location;lat;lon;timestamp;P1;durP1;ratioP1;P2;durP2;ratioP2
78783;SDS011;68127;51.050;14.084;2024-01-07T00:02:24;24.38;;;11.85;;
78783;SDS011;68127;51.050;14.084;2024-01-07T00:04:50;23.65;;;11.45;;
78783;SDS011;68127;51.050;14.084;2024-01-07T00:07:15;25.15;;;11.82;;
78783;SDS011;68127;51.050;14.084;2024-01-07T00:09:40;23.70;;;12.10;;
78783;SDS011;68127;51.050;14.084;2024-01-07T00:12:06;22.75;;;11.43;;
78783;SDS011;68127;51.050;14.084;2024-01-07T00:14:31;27.65;;;11.63;;
78783;SDS011;68127;51.050;14.084;2024-01-07T00:16:56;21.70;;;12.27;;
78783;SDS011;68127;51.050;14.084;2024-01-07T00:19:22;26.05;;;11.77;;
78783;SDS011;68127;51.050;14.084;2024-01-07T00:21:47;21.45;;;11.23;;
78783;SDS011;68127;51.050;14.084;2024-01-07T00:24:12;23.90;;;10.82;;
78783;SDS011;68127;51.050;14.084;2024-01-07T00:26:38;24.02;;;10.55;;
78783;SDS011;68127;51.050;14.084;2024-01-07T00:29:03;25.98;;;11.57;;
78783;SDS011;68127;51.050;14.084;2024-01-07T00:31:28;24.30;;;11.20;;
78783;SDS011;68127;51.050;14.084;2024-01-07T00:33:54;22.60;;;10.98;;
78783;SDS011;68127;51.050;14.084;2024-01-07T00:36:19;23.55;;;11.80;;
78783;SDS011;68127;51.050;14.084;2024-01-07T00:38:45;25.40;;;11.98;;
78783;SDS011;68127;51.050;14.084;2024-01-07T00:41:10;25.52;;;10.93;;
78783;SDS011;68127;51.050;14.084;2024-01-07T00:43:35;22.65;;;10.48;;
78783;SDS011;68127;51.050;14.084;2024-01-07T00:46:00;21.50;;;9.95;;
78783;SDS011;68127;51.050;14.084;2024-01-07T00:48:26;23.25;;;10.38;;
78783;SDS011;68127;51.050;14.084;2024-01-07T00:50:51;24.38;;;10.93;;
78783;SDS011;68127;51.050;14.084;2024-01-07T00:53:16;22.48;;;10.63;;
78783;SDS011;68127;51.050;14.084;2024-01-07T00:55:42;20.00;;;10.10;;
78783;SDS011;68127;51.050;14.084;2024-01-07T00:58:07;23.73;;;10.52;;
78783;SDS011;68127;51.050;14.084;2024-01-07T01:00:32;24.40;;;11.43;;
78783;SDS011;68127;51.050;14.084;2024-01-07T01:02:57;23.83;;;10.65;;
78783;SDS011;68127;51.050;14.084;2024-01-07T01:05:23;22.00;;;10.70;;
78783;SDS011;68127;51.050;14.084;2024-01-07T01:07:48;26.33;;;12.05;;
78783;SDS011;68127;51.050;14.084;2024-01-07T01:10:13;25.02;;;11.23;;
78783;SDS011;68127;51.050;14.084;2024-01-07T01:12:41;22.98;;;10.95;;
78783;SDS011;68127;51.050;14.084;2024-01-07T01:15:07;25.73;;;12.52;;
78783;SDS011;68127;51.050;14.084;2024-01-07T01:17:33;26.63;;;11.88;;
78783;SDS011;68127;51.050;14.084;2024-01-07T01:19:58;27.88;;;13.20;;
78783;SDS011;68127;51.050;14.084;2024-01-07T01:22:23;24.23;;;11.38;;
78783;SDS011;68127;51.050;14.084;2024-01-07T01:24:48;23.15;;;10.98;;
78783;SDS011;68127;51.050;14.084;2024-01-07T01:27:16;24.60;;;10.85;;
78783;SDS011;68127;51.050;14.084;2024-01-07T01:29:41;27.90;;;11.15;;
78783;SDS011;68127;51.050;14.084;2024-01-07T01:32:06;27.38;;;11.05;;
78783;SDS011;68127;51.050;14.084;2024-01-07T01:34:31;23.85;;;11.45;;
78783;SDS011;68127;51.050;14.084;2024-01-07T01:36:57;23.13;;;11.02;;
78783;SDS011;68127;51.050;14.084;2024-01-07T01:39:22;24.30;;;10.80;;
78783;SDS011;68127;51.050;14.084;2024-01-07T01:41:47;22.85;;;10.88;;
78783;SDS011;68127;51.050;14.084;2024-01-07T01:44:13;23.83;;;11.02;;
78783;SDS011;68127;51.050;14.084;2024-01-07T01:46:38;23.10;;;10.90;;
78783;SDS011;68127;51.050;14.084;2024-01-07T01:49:03;27.10;;;11.75;;
78783;SDS011;68127;51.050;14.084;2024-01-07T01:51:29;27.70;;;11.20;;
78783;SDS011;68127;51.050;14.084;2024-01-07T01:53:54;26.15;;;11.52;;
78783;SDS011;68127;51.050;14.084;2024-01-07T01:56:22;24.13;;;11.73;;
78783;SDS011;68127;51.050;14.084;2024-01-07T01:58:48;31.67;;;11.88;;
78783;SDS011;68127;51.050;14.084;2024-01-07T02:01:13;26.17;;;12.13;;
78783;SDS011;68127;51.050;14.084;2024-01-07T02:03:38;28.13;;;12.27;;
78783;SDS011;68127;51.050;14.084;2024-01-07T02:06:03;24.20;;;11.60;;
78783;SDS011;68127;51.050;14.084;2024-01-07T02:08:29;22.80;;;10.77;;
78783;SDS011;68127;51.050;14.084;2024-01-07T02:10:54;21.95;;;10.30;;
78783;SDS011;68127;51.050;14.084;2024-01-07T02:13:20;24.58;;;10.27;;
78783;SDS011;68127;51.050;14.084;2024-01-07T02:15:45;26.13;;;10.55;;
78783;SDS011;68127;51.050;14.084;2024-01-07T02:18:10;23.65;;;10.30;;
78783;SDS011;68127;51.050;14.084;2024-01-07T02:20:35;19.23;;;9.88;;
78783;SDS011;68127;51.050;14.084;2024-01-07T02:23:01;21.17;;;10.27;;
78783;SDS011;68127;51.050;14.084;2024-01-07T02:25:27;22.58;;;9.82;;
78783;SDS011;68127;51.050;14.084;2024-01-07T02:27:53;23.77;;;10.00;;
78783;SDS011;68127;51.050;14.084;2024-01-07T02:30:18;23.00;;;10.13;;
78783;SDS011;68127;51.050;14.084;2024-01-07T02:32:43;21.38;;;9.45;;
78783;SDS011;68127;51.050;14.084;2024-01-07T02:35:08;21.10;;;9.98;;
78783;SDS011;68127;51.050;14.084;2024-01-07T02:37:34;20.80;;;10.15;;
78783;SDS011;68127;51.050;14.084;2024-01-07T02:39:59;22.23;;;10.45;;
78783;SDS011;68127;51.050;14.084;2024-01-07T02:42:24;20.27;;;10.23;;
78783;SDS011;68127;51.050;14.084;2024-01-07T02:44:50;18.85;;;9.30;;
78783;SDS011;68127;51.050;14.084;2024-01-07T02:47:15;24.80;;;10.45;;
78783;SDS011;68127;51.050;14.084;2024-01-07T02:49:40;16.70;;;9.48;;
78783;SDS011;68127;51.050;14.084;2024-01-07T02:52:05;21.42;;;9.73;;
78783;SDS011;68127;51.050;14.084;2024-01-07T02:54:31;22.00;;;10.05;;
78783;SDS011;68127;51.050;14.084;2024-01-07T02:56:56;19.48;;;9.38;;
78783;SDS011;68127;51.050;14.084;2024-01-07T02:59:21;21.98;;;9.43;;
78783;SDS011;68127;51.050;14.084;2024-01-07T03:01:46;21.00;;;9.32;;
78783;SDS011;68127;51.050;14.084;2024-01-07T03:04:13;21.45;;;9.68;;
78783;SDS011;68127;51.050;14.084;2024-01-07T03:06:39;20.75;;;10.07;;
78783;SDS011;68127;51.050;14.084;2024-01-07T03:09:05;19.73;;;9.18;;
78783;SDS011;68127;51.050;14.084;2024-01-07T03:11:30;21.45;;;10.48;;
78783;SDS011;68127;51.050;14.084;2024-01-07T03:13:56;20.83;;;10.07;;
78783;SDS011;68127;51.050;14.084;2024-01-07T03:16:21;23.00;;;9.95;;
78783;SDS011;68127;51.050;14.084;2024-01-07T03:18:47;21.17;;;9.75;;
78783;SDS011;68127;51.050;14.084;2024-01-07T03:21:19;17.45;;;8.73;;
78783;SDS011;68127;51.050;14.084;2024-01-07T03:23:45;20.92;;;8.90;;
78783;SDS011;68127;51.050;14.084;2024-01-07T03:26:11;19.67;;;9.98;;
78783;SDS011;68127;51.050;14.084;2024-01-07T03:28:37;18.38;;;9.57;;
78783;SDS011;68127;51.050;14.084;2024-01-07T03:31:11;20.08;;;9.65;;
78783;SDS011;68127;51.050;14.084;2024-01-07T03:33:37;19.83;;;9.10;;
78783;SDS011;68127;51.050;14.084;2024-01-07T03:36:10;17.13;;;8.73;;
78783;SDS011;68127;51.050;14.084;2024-01-07T03:38:36;17.65;;;8.38;;
78783;SDS011;68127;51.050;14.084;2024-01-07T03:41:02;22.17;;;8.80;;
78783;SDS011;68127;51.050;14.084;2024-01-07T03:43:28;22.75;;;9.35;;
78783;SDS011;68127;51.050;14.084;2024-01-07T03:45:53;20.17;;;9.85;;
78783;SDS011;68127;51.050;14.084;2024-01-07T03:48:18;18.30;;;8.85;;
78783;SDS011;68127;51.050;14.084;2024-01-07T03:50:44;19.65;;;9.60;;
78783;SDS011;68127;51.050;14.084;2024-01-07T03:53:09;21.15;;;10.00;;
78783;SDS011;68127;51.050;14.084;2024-01-07T03:55:34;18.92;;;8.82;;
78783;SDS011;68127;51.050;14.084;2024-01-07T03:57:59;19.15;;;9.77;;
78783;SDS011;68127;51.050;14.084;2024-01-07T04:00:25;20.15;;;9.65;;
78783;SDS011;68127;51.050;14.084;2024-01-07T04:02:50;20.80;;;9.75;;
78783;SDS011;68127;51.050;14.084;2024-01-07T04:05:15;20.50;;;9.52;;
78783;SDS011;68127;51.050;14.084;2024-01-07T04:07:40;23.92;;;9.73;;
78783;SDS011;68127;51.050;14.084;2024-01-07T04:10:07;20.55;;;9.45;;
78783;SDS011;68127;51.050;14.084;2024-01-07T04:12:33;19.38;;;9.45;;
78783;SDS011;68127;51.050;14.084;2024-01-07T04:14:58;16.77;;;8.93;;
78783;SDS011;68127;51.050;14.084;2024-01-07T04:17:23;20.50;;;9.73;;
78783;SDS011;68127;51.050;14.084;2024-01-07T04:19:49;18.17;;;8.40;;
78783;SDS011;68127;51.050;14.084;2024-01-07T04:22:14;19.00;;;9.65;;
78783;SDS011;68127;51.050;14.084;2024-01-07T04:24:42;19.77;;;9.65;;
78783;SDS011;68127;51.050;14.084;2024-01-07T04:27:08;16.67;;;8.23;;
78783;SDS011;68127;51.050;14.084;2024-01-07T04:29:33;15.80;;;8.50;;
78783;SDS011;68127;51.050;14.084;2024-01-07T04:31:58;15.90;;;7.72;;
78783;SDS011;68127;51.050;14.084;2024-01-07T04:34:24;19.13;;;8.90;;
78783;SDS011;68127;51.050;14.084;2024-01-07T04:36:49;14.70;;;7.70;;
78783;SDS011;68127;51.050;14.084;2024-01-07T04:39:15;17.17;;;8.23;;
78783;SDS011;68127;51.050;14.084;2024-01-07T04:41:40;14.35;;;8.15;;
78783;SDS011;68127;51.050;14.084;2024-01-07T04:44:05;19.17;;;7.88;;
78783;SDS011;68127;51.050;14.084;2024-01-07T04:46:33;19.38;;;8.40;;
78783;SDS011;68127;51.050;14.084;2024-01-07T04:48:59;14.80;;;8.15;;
78783;SDS011;68127;51.050;14.084;2024-01-07T04:51:24;16.98;;;8.07;;
78783;SDS011;68127;51.050;14.084;2024-01-07T04:53:50;13.80;;;7.68;;
78783;SDS011;68127;51.050;14.084;2024-01-07T04:56:15;14.38;;;7.22;;
78783;SDS011;68127;51.050;14.084;2024-01-07T04:58:40;16.25;;;8.52;;
78783;SDS011;68127;51.050;14.084;2024-01-07T05:01:06;18.85;;;8.32;;
78783;SDS011;68127;51.050;14.084;2024-01-07T05:03:31;14.75;;;7.95;;
78783;SDS011;68127;51.050;14.084;2024-01-07T05:05:57;17.33;;;7.47;;
78783;SDS011;68127;51.050;14.084;2024-01-07T05:08:22;16.70;;;8.30;;
78783;SDS011;68127;51.050;14.084;2024-01-07T05:10:47;16.75;;;8.50;;
78783;SDS011;68127;51.050;14.084;2024-01-07T05:13:12;16.85;;;8.77;;
78783;SDS011;68127;51.050;14.084;2024-01-07T05:15:38;14.57;;;8.13;;
78783;SDS011;68127;51.050;14.084;2024-01-07T05:18:06;15.93;;;7.32;;
78783;SDS011;68127;51.050;14.084;2024-01-07T05:20:32;20.48;;;9.00;;
78783;SDS011;68127;51.050;14.084;2024-01-07T05:22:57;16.05;;;8.27;;
78783;SDS011;68127;51.050;14.084;2024-01-07T05:25:23;16.65;;;8.32;;
78783;SDS011;68127;51.050;14.084;2024-01-07T05:27:48;17.42;;;8.05;;
78783;SDS011;68127;51.050;14.084;2024-01-07T05:30:13;16.38;;;8.40;;
78783;SDS011;68127;51.050;14.084;2024-01-07T05:32:39;15.73;;;8.15;;
78783;SDS011;68127;51.050;14.084;2024-01-07T05:35:04;17.92;;;7.82;;
78783;SDS011;68127;51.050;14.084;2024-01-07T05:37:29;16.52;;;8.20;;
78783;SDS011;68127;51.050;14.084;2024-01-07T05:39:55;16.65;;;7.80;;
78783;SDS011;68127;51.050;14.084;2024-01-07T05:42:20;14.02;;;7.72;;
78783;SDS011;68127;51.050;14.084;2024-01-07T05:44:45;15.95;;;7.47;;
78783;SDS011;68127;51.050;14.084;2024-01-07T05:47:10;17.42;;;8.05;;
78783;SDS011;68127;51.050;14.084;2024-01-07T05:49:36;14.20;;;7.88;;
78783;SDS011;68127;51.050;14.084;2024-01-07T05:52:01;14.13;;;7.68;;
78783;SDS011;68127;51.050;14.084;2024-01-07T05:54:26;17.02;;;7.78;;
78783;SDS011;68127;51.050;14.084;2024-01-07T05:56:51;16.38;;;7.95;;
78783;SDS011;68127;51.050;14.084;2024-01-07T05:59:17;18.17;;;8.07;;
78783;SDS011;68127;51.050;14.084;2024-01-07T06:01:42;15.00;;;7.78;;
78783;SDS011;68127;51.050;14.084;2024-01-07T06:04:07;16.63;;;8.48;;
78783;SDS011;68127;51.050;14.084;2024-01-07T06:06:33;16.02;;;8.07;;
78783;SDS011;68127;51.050;14.084;2024-01-07T06:08:59;15.52;;;8.30;;
78783;SDS011;68127;51.050;14.084;2024-01-07T06:11:24;16.33;;;8.27;;
78783;SDS011;68127;51.050;14.084;2024-01-07T06:13:49;17.55;;;8.27;;
78783;SDS011;68127;51.050;14.084;2024-01-07T06:16:15;19.67;;;8.07;;
78783;SDS011;68127;51.050;14.084;2024-01-07T06:18:40;15.80;;;8.27;;
78783;SDS011;68127;51.050;14.084;2024-01-07T06:21:05;12.40;;;7.82;;
78783;SDS011;68127;51.050;14.084;2024-01-07T06:23:33;15.27;;;7.53;;
78783;SDS011;68127;51.050;14.084;2024-01-07T06:25:59;14.32;;;7.93;;
78783;SDS011;68127;51.050;14.084;2024-01-07T06:28:24;14.00;;;7.47;;
78783;SDS011;68127;51.050;14.084;2024-01-07T06:30:49;14.23;;;8.23;;
78783;SDS011;68127;51.050;14.084;2024-01-07T06:33:15;14.18;;;7.70;;
78783;SDS011;68127;51.050;14.084;2024-01-07T06:35:40;15.13;;;7.47;;
78783;SDS011;68127;51.050;14.084;2024-01-07T06:38:05;13.75;;;7.60;;
78783;SDS011;68127;51.050;14.084;2024-01-07T06:40:31;12.77;;;7.07;;
78783;SDS011;68127;51.050;14.084;2024-01-07T06:42:56;16.00;;;6.72;;
78783;SDS011;68127;51.050;14.084;2024-01-07T06:45:21;13.82;;;6.60;;
78783;SDS011;68127;51.050;14.084;2024-01-07T06:47:47;15.32;;;7.03;;
78783;SDS011;68127;51.050;14.084;2024-01-07T06:50:12;12.38;;;6.95;;
78783;SDS011;68127;51.050;14.084;2024-01-07T06:52:37;14.32;;;6.88;;
78783;SDS011;68127;51.050;14.084;2024-01-07T06:55:02;10.50;;;5.60;;
78783;SDS011;68127;51.050;14.084;2024-01-07T06:57:28;13.15;;;6.22;;
78783;SDS011;68127;51.050;14.084;2024-01-07T06:59:53;10.48;;;5.13;;
78783;SDS011;68127;51.050;14.084;2024-01-07T07:02:19;11.65;;;6.03;;
78783;SDS011;68127;51.050;14.084;2024-01-07T07:04:45;10.73;;;5.90;;
78783;SDS011;68127;51.050;14.084;2024-01-07T07:07:10;12.00;;;6.15;;
78783;SDS011;68127;51.050;14.084;2024-01-07T07:09:39;10.93;;;5.47;;
78783;SDS011;68127;51.050;14.084;2024-01-07T07:12:19;11.90;;;5.65;;
78783;SDS011;68127;51.050;14.084;2024-01-07T07:14:45;10.25;;;5.68;;
78783;SDS011;68127;51.050;14.084;2024-01-07T07:17:10;11.18;;;6.00;;
78783;SDS011;68127;51.050;14.084;2024-01-07T07:19:35;10.55;;;5.65;;
78783;SDS011;68127;51.050;14.084;2024-01-07T07:22:01;13.15;;;6.78;;
78783;SDS011;68127;51.050;14.084;2024-01-07T07:24:26;9.98;;;5.78;;
78783;SDS011;68127;51.050;14.084;2024-01-07T07:26:51;10.60;;;5.68;;
78783;SDS011;68127;51.050;14.084;2024-01-07T07:29:17;10.25;;;5.68;;
78783;SDS011;68127;51.050;14.084;2024-01-07T07:31:42;9.05;;;5.40;;
78783;SDS011;68127;51.050;14.084;2024-01-07T07:34:08;11.45;;;6.53;;
78783;SDS011;68127;51.050;14.084;2024-01-07T07:36:34;11.20;;;5.70;;
78783;SDS011;68127;51.050;14.084;2024-01-07T07:38:59;9.40;;;5.15;;
78783;SDS011;68127;51.050;14.084;2024-01-07T07:41:24;9.68;;;5.65;;
78783;SDS011;68127;51.050;14.084;2024-01-07T07:43:50;8.88;;;5.55;;
78783;SDS011;68127;51.050;14.084;2024-01-07T07:46:15;10.63;;;5.80;;
78783;SDS011;68127;51.050;14.084;2024-01-07T07:48:41;9.35;;;4.72;;
78783;SDS011;68127;51.050;14.084;2024-01-07T07:51:06;10.27;;;4.82;;
78783;SDS011;68127;51.050;14.084;2024-01-07T07:53:32;9.60;;;5.55;;
78783;SDS011;68127;51.050;14.084;2024-01-07T07:55:57;9.18;;;5.55;;
78783;SDS011;68127;51.050;14.084;2024-01-07T07:58:22;9.63;;;4.90;;
78783;SDS011;68127;51.050;14.084;2024-01-07T08:00:48;11.07;;;5.25;;
78783;SDS011;68127;51.050;14.084;2024-01-07T08:03:13;8.88;;;4.45;;
78783;SDS011;68127;51.050;14.084;2024-01-07T08:05:38;8.93;;;4.22;;
78783;SDS011;68127;51.050;14.084;2024-01-07T08:08:05;7.72;;;4.45;;
78783;SDS011;68127;51.050;14.084;2024-01-07T08:10:30;8.75;;;4.55;;
78783;SDS011;68127;51.050;14.084;2024-01-07T08:12:57;8.85;;;4.90;;
78783;SDS011;68127;51.050;14.084;2024-01-07T08:15:23;13.50;;;5.18;;
78783;SDS011;68127;51.050;14.084;2024-01-07T08:17:48;7.85;;;3.95;;
78783;SDS011;68127;51.050;14.084;2024-01-07T08:20:13;8.50;;;4.22;;
78783;SDS011;68127;51.050;14.084;2024-01-07T08:22:39;7.80;;;4.15;;
78783;SDS011;68127;51.050;14.084;2024-01-07T08:25:04;7.38;;;4.05;;
78783;SDS011;68127;51.050;14.084;2024-01-07T08:27:29;7.60;;;4.28;;
78783;SDS011;68127;51.050;14.084;2024-01-07T08:29:57;8.15;;;4.50;;
78783;SDS011;68127;51.050;14.084;2024-01-07T08:32:22;6.50;;;3.80;;
78783;SDS011;68127;51.050;14.084;2024-01-07T08:34:48;7.38;;;4.00;;
78783;SDS011;68127;51.050;14.084;2024-01-07T08:37:14;8.20;;;4.10;;
78783;SDS011;68127;51.050;14.084;2024-01-07T08:39:39;7.85;;;3.60;;
78783;SDS011;68127;51.050;14.084;2024-01-07T08:42:04;6.53;;;3.65;;
78783;SDS011;68127;51.050;14.084;2024-01-07T08:44:30;6.35;;;3.42;;
78783;SDS011;68127;51.050;14.084;2024-01-07T08:46:55;7.15;;;3.60;;
78783;SDS011;68127;51.050;14.084;2024-01-07T08:49:20;7.53;;;4.00;;
78783;SDS011;68127;51.050;14.084;2024-01-07T08:51:46;7.68;;;4.32;;
78783;SDS011;68127;51.050;14.084;2024-01-07T08:54:11;7.43;;;3.88;;
78783;SDS011;68127;51.050;14.084;2024-01-07T08:56:36;8.80;;;4.55;;
78783;SDS011;68127;51.050;14.084;2024-01-07T08:59:01;9.63;;;4.25;;
78783;SDS011;68127;51.050;14.084;2024-01-07T09:01:29;8.50;;;4.10;;
78783;SDS011;68127;51.050;14.084;2024-01-07T09:03:54;7.97;;;3.78;;
78783;SDS011;68127;51.050;14.084;2024-01-07T09:06:19;8.13;;;4.30;;
78783;SDS011;68127;51.050;14.084;2024-01-07T09:08:45;7.30;;;3.75;;
78783;SDS011;68127;51.050;14.084;2024-01-07T09:11:10;8.05;;;4.38;;
78783;SDS011;68127;51.050;14.084;2024-01-07T09:13:37;8.10;;;4.03;;
78783;SDS011;68127;51.050;14.084;2024-01-07T09:16:02;7.30;;;4.15;;
78783;SDS011;68127;51.050;14.084;2024-01-07T09:18:28;10.20;;;3.99;;
78783;SDS011;68127;51.050;14.084;2024-01-07T09:20:53;6.93;;;3.80;;
78783;SDS011;68127;51.050;14.084;2024-01-07T09:23:18;11.02;;;4.32;;
78783;SDS011;68127;51.050;14.084;2024-01-07T09:25:44;8.88;;;4.55;;
78783;SDS011;68127;51.050;14.084;2024-01-07T09:28:11;7.07;;;4.15;;
78783;SDS011;68127;51.050;14.084;2024-01-07T09:30:36;9.90;;;4.90;;
78783;SDS011;68127;51.050;14.084;2024-01-07T09:33:01;7.20;;;4.15;;
78783;SDS011;68127;51.050;14.084;2024-01-07T09:35:27;8.10;;;4.25;;
78783;SDS011;68127;51.050;14.084;2024-01-07T09:37:52;10.20;;;4.70;;
78783;SDS011;68127;51.050;14.084;2024-01-07T09:40:17;8.15;;;4.15;;
78783;SDS011;68127;51.050;14.084;2024-01-07T09:42:44;7.72;;;4.38;;
78783;SDS011;68127;51.050;14.084;2024-01-07T09:45:09;8.32;;;4.30;;
78783;SDS011;68127;51.050;14.084;2024-01-07T09:47:37;6.80;;;4.10;;
78783;SDS011;68127;51.050;14.084;2024-01-07T09:50:03;8.27;;;3.97;;
78783;SDS011;68127;51.050;14.084;2024-01-07T09:52:30;7.03;;;3.47;;
78783;SDS011;68127;51.050;14.084;2024-01-07T09:54:58;7.93;;;4.35;;
78783;SDS011;68127;51.050;14.084;2024-01-07T09:57:25;8.57;;;3.90;;
78783;SDS011;68127;51.050;14.084;2024-01-07T09:59:50;7.53;;;4.03;;
78783;SDS011;68127;51.050;14.084;2024-01-07T10:02:15;8.23;;;3.92;;
78783;SDS011;68127;51.050;14.084;2024-01-07T10:04:41;7.05;;;3.83;;
78783;SDS011;68127;51.050;14.084;2024-01-07T10:07:06;7.53;;;3.60;;
78783;SDS011;68127;51.050;14.084;2024-01-07T10:09:33;6.78;;;3.83;;
78783;SDS011;68127;51.050;14.084;2024-01-07T10:11:58;7.70;;;3.88;;
78783;SDS011;68127;51.050;14.084;2024-01-07T10:14:23;10.05;;;3.83;;
78783;SDS011;68127;51.050;14.084;2024-01-07T10:16:53;7.72;;;3.30;;
78783;SDS011;68127;51.050;14.084;2024-01-07T10:19:22;6.60;;;3.30;;
78783;SDS011;68127;51.050;14.084;2024-01-07T10:22:04;9.68;;;3.75;;
78783;SDS011;68127;51.050;14.084;2024-01-07T10:24:37;9.98;;;4.18;;
78783;SDS011;68127;51.050;14.084;2024-01-07T10:27:06;5.78;;;3.13;;
78783;SDS011;68127;51.050;14.084;2024-01-07T10:29:32;7.90;;;3.90;;
78783;SDS011;68127;51.050;14.084;2024-01-07T10:31:58;7.35;;;3.72;;
78783;SDS011;68127;51.050;14.084;2024-01-07T10:34:24;7.15;;;3.42;;
78783;SDS011;68127;51.050;14.084;2024-01-07T10:36:51;7.15;;;3.42;;
78783;SDS011;68127;51.050;14.084;2024-01-07T10:39:18;6.78;;;3.15;;
78783;SDS011;68127;51.050;14.084;2024-01-07T10:41:44;6.43;;;3.58;;
78783;SDS011;68127;51.050;14.084;2024-01-07T10:44:10;6.20;;;3.30;;
78783;SDS011;68127;51.050;14.084;2024-01-07T10:46:35;7.20;;;3.38;;
78783;SDS011;68127;51.050;14.084;2024-01-07T10:49:03;5.57;;;3.08;;
78783;SDS011;68127;51.050;14.084;2024-01-07T10:51:29;7.63;;;3.10;;
78783;SDS011;68127;51.050;14.084;2024-01-07T10:53:59;6.00;;;3.30;;
78783;SDS011;68127;51.050;14.084;2024-01-07T10:56:25;6.15;;;3.47;;
78783;SDS011;68127;51.050;14.084;2024-01-07T10:58:54;5.97;;;2.92;;
78783;SDS011;68127;51.050;14.084;2024-01-07T11:01:21;5.43;;;2.75;;
78783;SDS011;68127;51.050;14.084;2024-01-07T11:09:19;6.18;;;2.95;;
78783;SDS011;68127;51.050;14.084;2024-01-07T11:11:46;4.83;;;2.40;;
78783;SDS011;68127;51.050;14.084;2024-01-07T11:17:04;5.03;;;2.58;;
78783;SDS011;68127;51.050;14.084;2024-01-07T11:19:32;4.97;;;2.40;;
78783;SDS011;68127;51.050;14.084;2024-01-07T11:24:49;5.05;;;2.60;;
78783;SDS011;68127;51.050;14.084;2024-01-07T11:27:15;5.68;;;2.50;;
78783;SDS011;68127;51.050;14.084;2024-01-07T11:29:41;4.82;;;2.47;;
78783;SDS011;68127;51.050;14.084;2024-01-07T11:32:06;5.18;;;2.65;;
78783;SDS011;68127;51.050;14.084;2024-01-07T11:34:41;7.40;;;2.40;;
78783;SDS011;68127;51.050;14.084;2024-01-07T11:37:09;5.20;;;2.70;;
78783;SDS011;68127;51.050;14.084;2024-01-07T11:39:35;4.07;;;2.40;;
78783;SDS011;68127;51.050;14.084;2024-01-07T11:42:01;6.65;;;3.20;;
78783;SDS011;68127;51.050;14.084;2024-01-07T11:44:28;19.50;;;8.30;;
78783;SDS011;68127;51.050;14.084;2024-01-07T11:46:54;15.20;;;6.07;;
78783;SDS011;68127;51.050;14.084;2024-01-07T11:49:19;19.15;;;8.13;;
78783;SDS011;68127;51.050;14.084;2024-01-07T11:51:44;12.48;;;5.28;;
78783;SDS011;68127;51.050;14.084;2024-01-07T11:54:10;8.52;;;3.63;;
78783;SDS011;68127;51.050;14.084;2024-01-07T11:56:36;6.95;;;3.72;;
78783;SDS011;68127;51.050;14.084;2024-01-07T11:59:02;5.75;;;2.95;;
78783;SDS011;68127;51.050;14.084;2024-01-07T12:01:28;5.68;;;2.70;;
78783;SDS011;68127;51.050;14.084;2024-01-07T12:03:53;6.35;;;3.00;;
78783;SDS011;68127;51.050;14.084;2024-01-07T12:06:18;5.45;;;2.72;;
78783;SDS011;68127;51.050;14.084;2024-01-07T12:08:44;5.78;;;2.70;;
78783;SDS011;68127;51.050;14.084;2024-01-07T12:11:11;6.78;;;3.38;;
78783;SDS011;68127;51.050;14.084;2024-01-07T12:13:37;8.65;;;3.58;;
78783;SDS011;68127;51.050;14.084;2024-01-07T12:16:02;6.32;;;3.15;;
78783;SDS011;68127;51.050;14.084;2024-01-07T12:18:28;8.77;;;3.42;;
78783;SDS011;68127;51.050;14.084;2024-01-07T12:20:55;7.85;;;3.63;;
78783;SDS011;68127;51.050;14.084;2024-01-07T12:23:21;6.53;;;3.40;;
78783;SDS011;68127;51.050;14.084;2024-01-07T12:25:47;6.03;;;3.10;;
78783;SDS011;68127;51.050;14.084;2024-01-07T12:28:12;4.45;;;2.55;;
78783;SDS011;68127;51.050;14.084;2024-01-07T12:30:38;5.60;;;2.78;;
78783;SDS011;68127;51.050;14.084;2024-01-07T12:33:04;8.20;;;3.65;;
78783;SDS011;68127;51.050;14.084;2024-01-07T12:35:30;5.88;;;3.08;;
78783;SDS011;68127;51.050;14.084;2024-01-07T12:37:55;5.15;;;2.85;;
78783;SDS011;68127;51.050;14.084;2024-01-07T12:40:21;6.18;;;3.40;;
78783;SDS011;68127;51.050;14.084;2024-01-07T12:42:46;7.05;;;3.10;;
78783;SDS011;68127;51.050;14.084;2024-01-07T12:45:15;6.20;;;2.83;;
78783;SDS011;68127;51.050;14.084;2024-01-07T12:47:40;5.18;;;2.63;;
78783;SDS011;68127;51.050;14.084;2024-01-07T12:50:07;5.88;;;2.90;;
78783;SDS011;68127;51.050;14.084;2024-01-07T12:52:36;6.00;;;2.70;;
78783;SDS011;68127;51.050;14.084;2024-01-07T12:55:03;6.72;;;3.00;;
78783;SDS011;68127;51.050;14.084;2024-01-07T12:57:29;6.22;;;2.97;;
78783;SDS011;68127;51.050;14.084;2024-01-07T12:59:54;5.38;;;2.63;;
78783;SDS011;68127;51.050;14.084;2024-01-07T13:02:19;5.50;;;3.00;;
78783;SDS011;68127;51.050;14.084;2024-01-07T13:04:45;5.03;;;2.85;;
78783;SDS011;68127;51.050;14.084;2024-01-07T13:07:11;5.00;;;2.70;;
78783;SDS011;68127;51.050;14.084;2024-01-07T13:09:36;4.75;;;2.50;;
78783;SDS011;68127;51.050;14.084;2024-01-07T13:12:01;5.78;;;2.65;;
78783;SDS011;68127;51.050;14.084;2024-01-07T13:14:27;8.30;;;3.45;;
78783;SDS011;68127;51.050;14.084;2024-01-07T13:16:52;6.57;;;2.97;;
78783;SDS011;68127;51.050;14.084;2024-01-07T13:19:18;5.93;;;3.10;;
78783;SDS011;68127;51.050;14.084;2024-01-07T13:21:43;6.95;;;3.17;;
78783;SDS011;68127;51.050;14.084;2024-01-07T13:24:10;6.75;;;3.03;;
78783;SDS011;68127;51.050;14.084;2024-01-07T13:26:35;5.53;;;2.63;;
78783;SDS011;68127;51.050;14.084;2024-01-07T13:29:00;6.03;;;2.53;;
78783;SDS011;68127;51.050;14.084;2024-01-07T13:31:26;5.38;;;2.28;;
78783;SDS011;68127;51.050;14.084;2024-01-07T13:33:51;6.28;;;2.70;;
78783;SDS011;68127;51.050;14.084;2024-01-07T13:36:17;5.28;;;2.78;;
78783;SDS011;68127;51.050;14.084;2024-01-07T13:38:42;5.50;;;2.60;;
78783;SDS011;68127;51.050;14.084;2024-01-07T13:41:08;4.57;;;2.35;;
78783;SDS011;68127;51.050;14.084;2024-01-07T13:43:33;6.71;;;2.66;;
78783;SDS011;68127;51.050;14.084;2024-01-07T13:45:59;5.32;;;2.30;;
78783;SDS011;68127;51.050;14.084;2024-01-07T13:48:24;4.88;;;2.38;;
78783;SDS011;68127;51.050;14.084;2024-01-07T13:50:50;5.32;;;2.60;;
78783;SDS011;68127;51.050;14.084;2024-01-07T13:53:17;4.57;;;2.20;;
78783;SDS011;68127;51.050;14.084;2024-01-07T13:55:42;8.98;;;3.33;;
78783;SDS011;68127;51.050;14.084;2024-01-07T13:58:08;41.80;;;14.75;;
78783;SDS011;68127;51.050;14.084;2024-01-07T14:00:33;15.45;;;5.65;;
78783;SDS011;68127;51.050;14.084;2024-01-07T14:02:58;8.30;;;3.45;;
78783;SDS011;68127;51.050;14.084;2024-01-07T14:05:23;6.65;;;3.20;;
78783;SDS011;68127;51.050;14.084;2024-01-07T14:07:49;5.63;;;2.92;;
78783;SDS011;68127;51.050;14.084;2024-01-07T14:10:14;6.65;;;3.38;;
78783;SDS011;68127;51.050;14.084;2024-01-07T14:12:40;5.75;;;2.78;;
78783;SDS011;68127;51.050;14.084;2024-01-07T14:15:05;4.53;;;2.70;;
78783;SDS011;68127;51.050;14.084;2024-01-07T14:17:31;5.13;;;2.38;;
78783;SDS011;68127;51.050;14.084;2024-01-07T14:19:56;9.23;;;3.22;;
78783;SDS011;68127;51.050;14.084;2024-01-07T14:22:22;7.78;;;3.20;;
78783;SDS011;68127;51.050;14.084;2024-01-07T14:24:47;5.57;;;3.08;;
78783;SDS011;68127;51.050;14.084;2024-01-07T14:27:14;5.75;;;2.67;;